• Join FlightAware (Why Join?)
  • Login
  • US Flag 
06:57PM EDT


 

Airport Tracker/Info


-or-


 

Live Flight TrackerFlight Track Log ✈ ASQ4577 ✈ 10-May-2013 ✈ KDEN - KCLE

Flight Track Log - Related Links

Times and Time Zones

All times are in EDT time to prevent confusion due to time zone crossing. See the ASQ4577 flight status page for this flight to view local times or setup timezone preferences in your user account.

Time Position Orientation Groundspeed Altitude Reporting Facility
EDT Latitude Longitude Course Direction KTS MPH feet Rate Location/Type
03:38PM 39.9333 -104.6667 72° East 189 217 6,700  Level Denver TRACON
03:39PM 39.9500 -104.6000 72° East 251 289 8,300 1,620 Climbing Denver TRACON
03:40PM 39.9500 -104.4833 90° East 273 314 10,000 900 Climbing Denver TRACON
03:41PM 39.9500 -104.3667 90° East 326 375 10,200 300 Climbing Denver TRACON
03:41PM 39.9400 -104.3356 113° Southeast 323 372 10,500 1,440 Climbing Denver Center
03:43PM 39.9144 -104.2147 105° East 344 396 12,200 1,620 Climbing Denver Center
03:44PM 39.8806 -103.7444 72° East  Level FlightAware Approximate
03:44PM 39.9033 -104.1094 98° East 347 399 13,900  Level Denver Center
03:45PM 39.9500 -103.9706 66° East 342 394 15,800 1,500 Climbing Denver Center
03:46PM 39.9950 -103.8442 65° Northeast 357 411 17,100 960 Climbing Denver Center
03:47PM 40.0222 -103.7231 74° East 366 421 17,900 900 Climbing Denver Center
03:48PM 40.0467 -103.5756 78° East 374 430 19,000 960 Climbing Denver Center
03:49PM 40.0683 -103.4433 78° East 388 447 19,900 1,080 Climbing Denver Center
03:50PM 40.0947 -103.2881 77° East 392 451 21,300 1,260 Climbing Denver Center
03:51PM 40.1150 -103.1556 79° East 390 449 22,600 1,260 Climbing Denver Center
03:52PM 40.1372 -103.0247 77° East 387 445 24,000 1,380 Climbing Denver Center
03:53PM 40.1608 -102.8758 78° East 375 432 25,500 1,320 Climbing Denver Center
03:54PM 40.1803 -102.7497 79° East 371 427 26,800 1,260 Climbing Denver Center
03:55PM 40.2036 -102.6047 78° East 366 421 28,200 1,200 Climbing Denver Center
03:56PM 40.2219 -102.4833 79° East 358 412 29,300 1,080 Climbing Denver Center
03:57PM 40.2439 -102.3411 79° East 356 410 30,500 1,020 Climbing Denver Center
03:58PM 40.2633 -102.2197 78° East 356 410 31,500 960 Climbing Denver Center
03:59PM 40.2847 -102.0767 79° East 358 412 32,600 960 Climbing Denver Center
04:00PM 40.3031 -101.9533 79° East 360 414 33,500 900 Climbing Denver Center
04:01PM 40.3261 -101.8119 78° East 358 412 34,500 660 Climbing Denver Center
04:02PM 40.3439 -101.6894 79° East 358 412 34,900 240 Climbing Denver Center
04:03PM 40.3656 -101.5403 79° East 371 427 35,000  Climbing Denver Center
04:04PM 40.3856 -101.4069 79° East 385 443 35,000  Level Denver Center
04:05PM 40.4081 -101.2442 80° East 402 463 35,000  Level Denver Center
04:06PM 40.4286 -101.0989 79° East 421 484 35,000  Level Denver Center
04:07PM 40.4531 -100.9275 79° East 430 495 35,000  Level Denver Center
04:08PM 40.4767 -100.7786 78° East 436 502 35,000  Level Denver Center
04:09PM 40.5050 -100.6050 78° East 439 505 35,000  Level Denver Center
04:10PM 40.5283 -100.4550 78° East 442 509 35,000  Level Denver Center
04:11PM 40.5556 -100.2797 78° East 442 509 35,000  Level Denver Center
04:12PM 40.5792 -100.1297 78° East 441 507 35,000  Level Denver Center
04:13PM 40.6058 -99.9533 79° East 442 509 35,000  Level Denver Center
04:15PM 40.6269 -99.8161 78° East 441 507 35,000  Level Denver Center
04:16PM 40.6556 -99.6264 79° East 441 507 35,000  Level Denver Center
04:17PM 40.6789 -99.4678 79° East 441 507 35,000  Level Denver Center
04:18PM 40.7025 -99.3072 79° East 446 513 35,000  Level Denver Center
04:19PM 40.7244 -99.1492 80° East 443 510 35,000  Level Denver Center
04:19PM 40.7294 -99.1186 78° East 444 511 35,000  Level Minneapolis Center
04:20PM 40.7519 -98.9608 79° East 445 512 35,000  Level Minneapolis Center
04:21PM 40.7792 -98.7683 79° East 446 513 35,000  Level Minneapolis Center
04:22PM 40.8067 -98.5742 79° East 448 516 35,000  Level Minneapolis Center
04:23PM 40.8294 -98.4167 79° East 448 516 35,000  Level Minneapolis Center
04:24PM 40.8511 -98.2567 80° East 447 514 35,000  Level Minneapolis Center
04:25PM 40.8775 -98.0608 80° East 452 520 35,000  Level Minneapolis Center
04:26PM 40.9000 -97.8975 80° East 453 521 35,000  Level Minneapolis Center
04:27PM 40.9203 -97.7342 81° East 452 520 35,000  Level Minneapolis Center
04:28PM 40.9422 -97.5694 80° East 456 525 35,000  Level Minneapolis Center
04:29PM 40.9633 -97.4050 80° East 455 524 35,000  Level Minneapolis Center
04:30PM 40.9856 -97.2339 80° East 456 525 35,000  Level Minneapolis Center
04:32PM 41.0064 -97.0681 80° East 458 527 35,000  Level Minneapolis Center
04:33PM 41.0275 -96.9019 80° East 459 528 35,000  Level Minneapolis Center
04:34PM 41.0528 -96.7011 80° East 462 532 35,000  Level Minneapolis Center
04:35PM 41.0733 -96.5328 81° East 464 534 35,000  Level Minneapolis Center
04:36PM 41.0939 -96.3639 81° East 466 536 35,000  Level Minneapolis Center
04:37PM 41.1136 -96.1969 81° East 468 539 35,000  Level Minneapolis Center
04:38PM 41.1336 -96.0250 81° East 472 543 35,000  Level Minneapolis Center
04:39PM 41.1567 -95.8192 81° East 471 542 35,000  Level Minneapolis Center
04:40PM 41.1792 -95.6483 80° East 470 541 35,000  Level Minneapolis Center
04:41PM 41.2025 -95.4839 79° East 473 544 35,000  Level Minneapolis Center
04:42PM 41.2328 -95.2794 79° East 474 545 35,000  Level Minneapolis Center
04:43PM 41.2611 -95.0725 80° East 475 547 35,000  Level Minneapolis Center
04:44PM 41.2842 -94.9008 80° East 474 545 35,000  Level Minneapolis Center
04:45PM 41.3067 -94.7286 80° East 474 545 35,000  Level Minneapolis Center
04:46PM 41.3303 -94.5556 80° East 476 548 35,000  Level Minneapolis Center
04:47PM 41.3581 -94.3469 80° East 477 549 35,000  Level Minneapolis Center
04:48PM 41.3822 -94.1658 80° East 479 551 35,000  Level Minneapolis Center
04:50PM 41.4050 -93.9919 80° East 480 552 35,000  Level Minneapolis Center
04:51PM 41.4311 -93.7833 80° East 479 551 35,000  Level Minneapolis Center
04:52PM 41.4542 -93.6089 80° East 480 552 35,000  Level Minneapolis Center
04:53PM 41.4783 -93.4314 80° East 485 558 35,000  Level Minneapolis Center
04:54PM 41.4992 -93.2542 81° East 487 560 35,000  Level Minneapolis Center
04:55PM 41.5203 -93.0789 81° East 483 556 35,000  Level Minneapolis Center
04:56PM 41.5417 -92.9022 81° East 483 556 35,000  Level Minneapolis Center
04:57PM 41.5672 -92.6886 81° East 486 559 35,000  Level Minneapolis Center
04:58PM 41.5881 -92.5106 81° East 487 560 35,000  Level Minneapolis Center
04:58PM 41.5942 -92.4603 81° East 488 562 35,000  Level Chicago Center
04:59PM 41.6150 -92.2814 81° East 491 565 35,000  Level Chicago Center
05:00PM 41.6386 -92.0692 81° East 488 562 35,000  Level Chicago Center
05:01PM 41.6575 -91.8908 82° East 490 564 35,000  Level Chicago Center
05:02PM 41.6769 -91.7125 82° East 490 564 35,000  Level Chicago Center
05:03PM 41.6967 -91.5364 81° East 487 560 35,000  Level Chicago Center
05:04PM 41.7189 -91.3231 82° East 489 563 35,000  Level Chicago Center
05:05PM 41.7381 -91.1450 82° East 491 565 35,000  Level Chicago Center
05:06PM 41.7558 -90.9681 82° East 487 560 35,000  Level Chicago Center
05:07PM 41.7731 -90.7894 83° East 489 563 35,000  Level Chicago Center
05:08PM 41.7925 -90.5950 82° East 489 563 35,000  Level Chicago Center
05:10PM 41.8133 -90.3978 82° East 489 563 35,000  Level Chicago Center
05:11PM 41.8306 -90.2186 83° East 490 564 35,000  Level Chicago Center
05:12PM 41.8467 -90.0411 83° East 488 562 35,000  Level Chicago Center
05:13PM 41.8633 -89.8606 83° East 487 560 35,000  Level Chicago Center
05:14PM 41.8825 -89.6447 83° East 487 560 35,000  Level Chicago Center
05:15PM 41.8994 -89.4633 83° East 492 566 35,000  Level Chicago Center
05:16PM 41.9153 -89.2831 83° East 490 564 35,000  Level Chicago Center
05:17PM 41.9306 -89.1042 83° East 485 558 35,000  Level Chicago Center
05:18PM 41.9461 -88.9236 83° East 488 562 35,000  Level Chicago Center
05:19PM 41.9611 -88.7419 84° East 490 564 35,000  Level Chicago Center
05:20PM 41.9778 -88.5239 84° East 489 563 35,000  Level Chicago Center
05:21PM 41.9922 -88.3442 84° East 488 562 35,000  Level Chicago Center
05:22PM 42.0058 -88.1614 84° East 489 563 35,000  Level Chicago Center
05:23PM 42.0192 -87.9811 84° East 484 557 35,000  Level Chicago Center
05:24PM 42.0331 -87.7981 84° East 489 563 35,000  Level Chicago Center
05:25PM 42.0464 -87.6161 84° East 489 563 35,000  Level Chicago Center
05:26PM 42.0631 -87.3939 84° East 495 570 35,000  Level Chicago Center
05:27PM 42.0753 -87.2086 85° East 498 573 35,000  Level Chicago Center
05:28PM 42.0883 -87.0236 85° East 497 572 35,000  Level Chicago Center
05:29PM 42.0892 -86.8372 90° East 495 570 35,000  Level Chicago Center
05:30PM 42.0900 -86.6414 90° East 496 571 35,000  Level Chicago Center
05:31PM 42.0919 -86.4553 89° East 496 571 35,000  Level Chicago Center
05:32PM 42.0906 -86.2686 91° East 498 573 35,000 -60 Level Chicago Center
05:33PM 42.0892 -86.0817 91° East 498 573 34,900 -540 Descending Chicago Center
05:34PM 42.0878 -85.8747 90° East 495 570 33,900 -840 Descending Chicago Center
05:35PM 42.0878 -85.6939 90° East 490 564 33,200 -480 Descending Chicago Center
05:36PM 42.0856 -85.5122 91° East 490 564 33,000 -120 Descending Chicago Center
05:37PM 42.0839 -85.3289 91° East 491 565 33,000  Level Chicago Center
05:38PM 42.0839 -85.1497 90° East 496 571 33,000  Level Cleveland Center
05:39PM 42.0828 -84.9650 90° East 496 571 33,000  Level Cleveland Center
05:40PM 42.0792 -84.7828 91° East 496 571 33,000  Level Cleveland Center
05:41PM 42.0753 -84.5978 92° East 496 571 33,000  Level Cleveland Center
05:42PM 42.0711 -84.4100 92° East 496 571 33,000 -540 Level Cleveland Center
05:43PM 42.0642 -84.2447 93° East 496 571 32,000 -1,500 Descending Cleveland Center
05:44PM 42.0614 -84.0597 91° East 496 571 30,100 -2,100 Descending Cleveland Center
05:45PM 42.0564 -83.8778 92° East 496 571 27,900 -2,280 Descending Cleveland Center
05:46PM 42.0514 -83.6900 92° East 496 571 25,600 -2,160 Descending Cleveland Center
05:47PM 42.0464 -83.4828 92° East 501 577 23,600 -1,800 Descending Cleveland Center
05:48PM 42.0297 -83.3058 97° East 484 557 22,100 -1,440 Descending Cleveland Center
05:49PM 42.0150 -83.1375 97° East 469 540 20,800 -1,200 Descending Cleveland Center
05:50PM 41.9997 -82.9694 97° East 456 525 19,700 -1,200 Descending Cleveland Center
05:51PM 41.9822 -82.8067 98° East 445 512 18,400 -1,380 Descending Cleveland Center
05:52PM 41.9769 -82.7589 98° East 435 501 17,900 -1,920 Descending Cleveland Center
05:52PM 41.9683 -82.6525 96° East 439 505 16,500 -2,220 Descending Cleveland Center
05:53PM 41.9628 -82.6133 101° East 423 487 15,900 -2,340 Descending Cleveland Center
05:53PM 41.9419 -82.5008 104° East 426 490 14,200 -2,220 Descending Cleveland Center
05:54PM 41.9300 -82.4672 116° Southeast 412 474 13,700 -2,040 Descending Cleveland Center
05:54PM 41.8981 -82.3631 112° Southeast 408 470 12,200 -2,160 Descending Cleveland Center
05:55PM 41.8783 -82.3067 115° Southeast 400 460 11,300 -2,040 Descending Cleveland Center
05:55PM 41.8542 -82.2333 114° Southeast 398 458 10,200 -1,320 Descending Cleveland Center
05:56PM 41.8192 -82.2019 146° Southeast 357 411 10,000 -240 Descending Cleveland Center
05:56PM 41.7739 -82.1619 147° Southeast 342 394 10,000  Level Cleveland Center
05:57PM 41.7411 -82.1358 149° Southeast 319 367 10,000 -300 Level Cleveland Center
05:57PM 41.7039 -82.0961 141° Southeast 335 386 9,700 -720 Descending Cleveland Center
05:58PM 41.6794 -82.0678 139° Southeast 283 326 9,300 -720 Descending Cleveland Center
05:58PM 41.6508 -82.0197 129° Southeast 298 343 9,000 -360 Descending Cleveland Center
05:59PM 41.6408 -81.9864 112° Southeast 299 344 9,000 -300 Level Cleveland Center
05:59PM 41.6228 -81.9164 109° East 287 330 8,700 -900 Descending Cleveland Center
06:00PM 41.6128 -81.8828 112° Southeast 292 336 8,100 -1,500 Descending Cleveland Center
06:00PM 41.5947 -81.8158 110° East 287 330 7,200 -1,020 Descending Cleveland Center
06:01PM 41.5869 -81.7769 105° East 268 308 7,000 -720 Descending Cleveland Center
06:01PM 41.5917 -81.7269 83° East 257 296 6,500 -840 Descending Cleveland Center
06:02PM 41.5939 -81.6881 86° East 234 269 6,200 -900 Descending Cleveland Center
06:03PM 41.5506 -81.6458 144° Southeast 190 219 5,200 -1,200 Descending Cleveland Center
06:04PM 41.5147 -81.6950 226° Southwest 165 190 3,800 -1,080 Descending Cleveland Center
06:06PM 41.4575 -81.7828 229° Southwest 146 168 2,100 -780 Descending Cleveland Center
06:07PM 41.4342 -81.8156 226° Southwest 129 148 1,500 -600 Descending Cleveland Center
06:09PM 41.4000 -81.8500 153° Southeast  Level FlightAware Approximate